Time;durP1;ratioP1;P1;durP2;ratioP2;P2;SDS_P1;SDS_P2;PMS_P1;PMS_P2;Temp;Humidity;BMP_temperature;BMP_pressure;BME280_temperature;BME280_humidity;BME280_pressure;Samples;Min_cycle;Max_cycle;Signal;HPM_P1;HPM_P2
2023/07/12 00:00:58;;;;;;;3.38;1.70;;;22.10;66.30;;;;;;5051322;28;20116;-70
2023/07/12 00:03:24;;;;;;;3.35;1.83;;;22.10;66.60;;;;;;5050708;28;20055;-70
2023/07/12 00:05:51;;;;;;;2.55;1.52;;;22.10;66.50;;;;;;5019023;28;20484;-70
2023/07/12 00:08:26;;;;;;;2.85;1.80;;;22.10;66.50;;;;;;5049462;28;20571;-70
2023/07/12 00:10:53;;;;;;;2.65;1.45;;;22.10;66.70;;;;;;5051045;28;20037;-70
2023/07/12 00:13:19;;;;;;;2.25;1.58;;;22.10;66.80;;;;;;5051655;28;20041;-70
2023/07/12 00:15:48;;;;;;;1.83;1.33;;;22.10;66.90;;;;;;5049359;28;20041;-70
2023/07/12 00:18:17;;;;;;;3.33;1.60;;;22.00;66.50;;;;;;5051159;28;20040;-70
2023/07/12 00:20:44;;;;;;;3.10;1.50;;;22.00;66.50;;;;;;5052064;28;20036;-70
2023/07/12 00:23:12;;;;;;;3.25;1.75;;;22.00;66.30;;;;;;5034635;28;20508;-70
2023/07/12 00:25:38;;;;;;;4.07;1.60;;;22.00;66.30;;;;;;5051500;28;20069;-70
2023/07/12 00:28:27;;;;;;;2.35;1.52;;;22.00;66.20;;;;;;5051316;28;20048;-70
2023/07/12 00:30:56;;;;;;;2.63;1.60;;;22.00;66.20;;;;;;5050746;28;20095;-69
2023/07/12 00:33:22;;;;;;;1.88;1.10;;;22.00;66.50;;;;;;5051120;28;20037;-69
2023/07/12 00:35:49;;;;;;;2.13;1.27;;;21.90;66.20;;;;;;5051539;28;20072;-69
2023/07/12 00:38:21;;;;;;;2.13;1.40;;;21.90;66.00;;;;;;5034828;28;20052;-69
2023/07/12 00:40:56;;;;;;;1.05;0.90;;;21.90;66.00;;;;;;5034819;28;20479;-69
2023/07/12 00:43:24;;;;;;;2.60;1.40;;;21.90;66.00;;;;;;5034381;28;20125;-69
2023/07/12 00:45:51;;;;;;;2.38;1.05;;;21.90;66.00;;;;;;5051489;28;20033;-69
2023/07/12 00:48:17;;;;;;;3.67;1.30;;;21.90;66.00;;;;;;5034419;28;20132;-69
2023/07/12 00:50:43;;;;;;;2.05;1.10;;;21.90;65.80;;;;;;5051184;28;20094;-69
2023/07/12 00:53:18;;;;;;;3.35;1.50;;;21.90;65.90;;;;;;5034829;28;20080;-70
2023/07/12 00:56:10;;;;;;;3.30;1.65;;;21.90;66.30;;;;;;5048652;28;20040;-70
2023/07/12 00:58:43;;;;;;;3.63;1.50;;;21.90;65.80;;;;;;5030747;28;20515;-70
2023/07/12 01:01:10;;;;;;;2.35;1.30;;;21.80;65.90;;;;;;5051043;28;20067;-70
2023/07/12 01:03:38;;;;;;;2.10;1.30;;;21.80;65.90;;;;;;5051177;28;20044;-70
2023/07/12 01:06:08;;;;;;;3.15;1.50;;;21.80;66.00;;;;;;5049553;28;20036;-70
2023/07/12 01:08:35;;;;;;;2.38;1.48;;;21.80;66.00;;;;;;5050964;28;20159;-70
2023/07/12 01:11:03;;;;;;;3.15;1.50;;;21.80;66.00;;;;;;5050898;28;20044;-70
2023/07/12 01:13:40;;;;;;;5.40;1.40;;;21.80;65.80;;;;;;5018043;28;20033;-70
2023/07/12 01:16:06;;;;;;;3.65;1.40;;;21.70;65.80;;;;;;5048810;28;20079;-70
2023/07/12 01:18:32;;;;;;;2.65;1.20;;;21.70;65.70;;;;;;5050435;28;20080;-70
2023/07/12 01:21:10;;;;;;;1.63;1.20;;;21.70;65.70;;;;;;5050431;28;20484;-70
2023/07/12 01:23:36;;;;;;;2.30;1.20;;;21.70;65.70;;;;;;5049892;28;20049;-70
2023/07/12 01:26:22;;;;;;;2.67;1.27;;;21.70;66.10;;;;;;5034291;28;20381;-70
2023/07/12 01:28:51;;;;;;;3.78;1.80;;;21.70;66.00;;;;;;5049741;28;20044;-70
2023/07/12 01:31:17;;;;;;;4.00;1.70;;;21.70;66.20;;;;;;5047986;28;20029;-70
2023/07/12 01:33:44;;;;;;;3.13;1.85;;;21.60;66.10;;;;;;5050649;28;20040;-70
2023/07/12 01:36:10;;;;;;;3.30;1.70;;;21.70;66.10;;;;;;5047208;28;20037;-69
2023/07/12 01:38:36;;;;;;;2.45;1.70;;;21.60;66.00;;;;;;5050395;28;20079;-69
2023/07/12 01:41:02;;;;;;;1.98;1.33;;;21.60;66.10;;;;;;5033739;28;20480;-70
2023/07/12 01:43:28;;;;;;;4.03;1.70;;;21.60;65.90;;;;;;5047812;28;20037;-70
2023/07/12 01:45:54;;;;;;;3.30;1.92;;;21.60;65.90;;;;;;5050097;28;20040;-69
2023/07/12 01:48:19;;;;;;;2.45;1.60;;;21.60;65.90;;;;;;5050302;28;20044;-70
2023/07/12 01:50:45;;;;;;;2.67;1.73;;;21.50;66.00;;;;;;5050057;28;20121;-69
2023/07/12 01:53:11;;;;;;;2.90;1.60;;;21.50;66.30;;;;;;5050064;28;20128;-70
2023/07/12 01:55:36;;;;;;;2.47;1.48;;;21.50;66.40;;;;;;5049568;28;20056;-70
2023/07/12 01:58:02;;;;;;;3.47;1.60;;;21.50;66.30;;;;;;5049616;28;20095;-69
2023/07/12 02:00:28;;;;;;;3.30;1.83;;;21.40;66.20;;;;;;5049883;28;20041;-70
2023/07/12 02:02:54;;;;;;;3.08;1.70;;;21.40;66.30;;;;;;5033764;28;20503;-70
2023/07/12 02:05:21;;;;;;;4.78;1.98;;;21.40;66.20;;;;;;5033588;28;20503;-70
2023/07/12 02:07:48;;;;;;;3.83;1.80;;;21.40;66.40;;;;;;5016301;28;20051;-69
2023/07/12 02:10:16;;;;;;;3.72;1.95;;;21.30;66.30;;;;;;5047585;28;20110;-70
2023/07/12 02:12:42;;;;;;;7.82;2.10;;;21.30;66.50;;;;;;5033060;28;20076;-69
2023/07/12 02:15:11;;;;;;;3.97;1.73;;;21.30;66.50;;;;;;5033140;28;20076;-70
2023/07/12 02:17:37;;;;;;;6.63;2.05;;;21.30;66.50;;;;;;5049516;28;20090;-69
2023/07/12 02:20:04;;;;;;;8.70;2.28;;;21.20;66.30;;;;;;5049605;28;20037;-70
2023/07/12 02:22:32;;;;;;;3.63;2.28;;;21.20;66.50;;;;;;5049610;28;20049;-69
2023/07/12 02:24:58;;;;;;;4.53;1.77;;;21.20;66.70;;;;;;5049742;28;20037;-69
2023/07/12 02:27:24;;;;;;;6.05;1.70;;;21.20;66.70;;;;;;5032825;28;20458;-69
2023/07/12 02:29:51;;;;;;;7.47;2.25;;;21.10;66.60;;;;;;5049313;28;20060;-69
2023/07/12 02:32:17;;;;;;;7.53;2.78;;;21.10;66.90;;;;;;5049644;28;20049;-69
2023/07/12 02:34:42;;;;;;;7.50;2.70;;;21.10;67.20;;;;;;5036139;28;20120;-68
2023/07/12 02:37:08;;;;;;;6.47;2.78;;;21.10;67.10;;;;;;5053441;28;20087;-69
2023/07/12 02:39:34;;;;;;;7.03;2.75;;;21.00;66.90;;;;;;5037012;28;20033;-70
2023/07/12 02:41:59;;;;;;;8.32;2.67;;;21.00;67.40;;;;;;5053469;28;20064;-69
2023/07/12 02:44:25;;;;;;;6.82;2.75;;;21.00;67.70;;;;;;5054114;28;20044;-69
2023/07/12 02:46:51;;;;;;;5.35;2.38;;;21.00;67.70;;;;;;5053659;28;20391;-69
2023/07/12 02:49:17;;;;;;;7.93;2.55;;;21.00;67.70;;;;;;5037057;28;20067;-69
2023/07/12 02:51:43;;;;;;;7.00;3.03;;;20.90;67.90;;;;;;5053477;28;20075;-69
2023/07/12 02:54:09;;;;;;;4.90;2.08;;;20.90;68.10;;;;;;5053260;28;20076;-69
2023/07/12 02:56:34;;;;;;;6.63;2.35;;;20.90;67.90;;;;;;5036729;28;20071;-69
2023/07/12 02:59:00;;;;;;;5.38;2.20;;;20.80;67.80;;;;;;5053099;28;20098;-69
2023/07/12 03:01:26;;;;;;;5.38;2.05;;;20.90;67.90;;;;;;5036521;28;20036;-69
2023/07/12 03:03:55;;;;;;;7.95;2.78;;;20.90;68.00;;;;;;5053253;28;20033;-69
2023/07/12 03:06:21;;;;;;;5.07;2.28;;;20.80;68.20;;;;;;5052899;28;20116;-69
2023/07/12 03:08:47;;;;;;;7.95;2.17;;;20.80;68.20;;;;;;5053429;28;20041;-70
2023/07/12 03:11:14;;;;;;;5.88;2.20;;;20.80;67.90;;;;;;5052758;28;20044;-70
2023/07/12 03:13:40;;;;;;;5.40;2.13;;;20.80;68.60;;;;;;5053098;28;20408;-69
2023/07/12 03:16:07;;;;;;;3.88;2.08;;;20.80;68.10;;;;;;5036273;28;20033;-70
2023/07/12 03:18:33;;;;;;;3.92;1.67;;;20.80;68.10;;;;;;5052443;28;20499;-70
2023/07/12 03:21:02;;;;;;;6.15;2.58;;;20.80;68.10;;;;;;5052781;28;20185;-70
2023/07/12 03:23:30;;;;;;;5.70;2.42;;;20.80;68.40;;;;;;5052802;28;20049;-70
2023/07/12 03:25:55;;;;;;;5.68;2.15;;;20.70;68.30;;;;;;5052824;28;20041;-70
2023/07/12 03:28:21;;;;;;;5.25;2.13;;;20.70;68.00;;;;;;5052563;28;20073;-69
2023/07/12 03:31:17;;;;;;;6.53;2.47;;;20.70;68.10;;;;;;5052796;28;20114;-70
2023/07/12 03:33:45;;;;;;;5.68;2.20;;;20.70;67.80;;;;;;5035739;28;20041;-70
2023/07/12 03:36:11;;;;;;;5.10;2.28;;;20.70;68.20;;;;;;5048443;28;20051;-69
2023/07/12 03:38:37;;;;;;;4.47;2.40;;;20.70;68.30;;;;;;5036072;28;20037;-70
2023/07/12 03:41:05;;;;;;;8.23;2.40;;;20.70;68.30;;;;;;5052531;28;20041;-69
2023/07/12 03:43:32;;;;;;;7.45;2.83;;;20.60;68.60;;;;;;5052515;28;20037;-69
2023/07/12 03:45:58;;;;;;;5.45;2.20;;;20.60;68.80;;;;;;5051145;28;21556;-70
2023/07/12 03:48:24;;;;;;;4.68;2.22;;;20.60;68.70;;;;;;5052459;28;20041;-70
2023/07/12 03:50:52;;;;;;;8.05;2.58;;;20.60;68.90;;;;;;5051965;28;20473;-70
2023/07/12 03:53:18;;;;;;;7.00;2.40;;;20.50;68.90;;;;;;5052485;28;20053;-70
2023/07/12 03:55:46;;;;;;;4.68;2.15;;;20.50;69.10;;;;;;5035916;28;20052;-70
2023/07/12 03:58:18;;;;;;;9.52;3.58;;;20.50;69.00;;;;;;5035474;28;20041;-70
2023/07/12 04:00:47;;;;;;;4.30;2.08;;;20.50;69.20;;;;;;5052192;28;20408;-70
2023/07/12 04:03:13;;;;;;;6.97;2.20;;;20.50;69.20;;;;;;5052124;28;20045;-70
2023/07/12 04:05:40;;;;;;;7.47;3.13;;;20.40;69.10;;;;;;5052356;28;20104;-70
2023/07/12 04:08:07;;;;;;;7.45;2.15;;;20.40;69.30;;;;;;5052262;28;20123;-69
2023/07/12 04:10:33;;;;;;;5.47;2.45;;;20.40;69.40;;;;;;5052133;28;20549;-69
2023/07/12 04:12:59;;;;;;;6.32;2.33;;;20.40;69.60;;;;;;5051835;28;20037;-70
2023/07/12 04:15:25;;;;;;;8.38;3.00;;;20.40;69.60;;;;;;5052101;28;20036;-70
2023/07/12 04:17:51;;;;;;;4.45;2.38;;;20.40;69.90;;;;;;5052790;28;20477;-70
2023/07/12 04:20:17;;;;;;;10.02;2.85;;;20.40;70.00;;;;;;5052057;28;20045;-69
2023/07/12 04:22:42;;;;;;;8.18;3.20;;;20.30;70.00;;;;;;5048219;28;20127;-70
2023/07/12 04:25:09;;;;;;;7.32;2.53;;;20.30;70.40;;;;;;5051292;28;20059;-70
2023/07/12 04:27:37;;;;;;;6.63;2.85;;;20.20;70.40;;;;;;5051568;28;20515;-70
2023/07/12 04:30:07;;;;;;;7.30;2.42;;;20.20;70.50;;;;;;5051549;28;20139;-70
2023/07/12 04:32:34;;;;;;;7.68;2.70;;;20.20;70.40;;;;;;5018485;28;20044;-70
2023/07/12 04:34:59;;;;;;;10.05;3.28;;;20.20;70.70;;;;;;5051606;28;20052;-70
2023/07/12 04:37:25;;;;;;;8.25;2.88;;;20.20;70.80;;;;;;5051362;28;20037;-70
2023/07/12 04:39:51;;;;;;;11.30;3.72;;;20.10;71.00;;;;;;5051340;28;20029;-70
2023/07/12 04:42:17;;;;;;;8.40;2.50;;;20.10;71.30;;;;;;5050295;28;20040;-70
2023/07/12 04:44:42;;;;;;;5.50;2.85;;;20.00;71.30;;;;;;5050912;28;20037;-70
2023/07/12 04:47:09;;;;;;;9.05;3.67;;;20.00;71.40;;;;;;5051293;28;20043;-70
2023/07/12 04:49:34;;;;;;;7.13;3.00;;;20.00;71.60;;;;;;5050895;28;20072;-70
2023/07/12 04:52:00;;;;;;;8.65;2.78;;;20.00;71.80;;;;;;5016790;28;20049;-70
2023/07/12 04:54:26;;;;;;;7.22;3.20;;;20.00;71.90;;;;;;5051700;28;20041;-70
2023/07/12 04:56:52;;;;;;;8.63;2.92;;;20.00;71.90;;;;;;5034395;28;20041;-70
2023/07/12 04:59:18;;;;;;;6.32;2.63;;;20.00;72.00;;;;;;5047845;28;20047;-70
2023/07/12 05:01:45;;;;;;;10.57;3.15;;;20.00;72.00;;;;;;5047876;28;20033;-70
2023/07/12 05:04:12;;;;;;;10.38;2.80;;;20.00;72.20;;;;;;5034444;28;20061;-70
2023/07/12 05:06:38;;;;;;;8.63;3.20;;;20.00;72.20;;;;;;5052274;28;20041;-70
2023/07/12 05:09:03;;;;;;;9.70;3.50;;;20.00;72.40;;;;;;5035683;28;20048;-69
2023/07/12 05:11:30;;;;;;;9.65;4.07;;;20.10;72.60;;;;;;5052066;28;20061;-70
2023/07/12 05:13:55;;;;;;;10.40;3.80;;;20.00;72.70;;;;;;5052056;28;20120;-69
2023/07/12 05:16:21;;;;;;;12.60;4.18;;;20.10;72.90;;;;;;5035149;28;20124;-69
2023/07/12 05:18:47;;;;;;;9.32;3.95;;;20.10;73.00;;;;;;5034997;28;20040;-69
2023/07/12 05:21:12;;;;;;;6.18;3.10;;;20.10;72.80;;;;;;5051751;28;20106;-70
2023/07/12 05:23:39;;;;;;;8.93;2.63;;;20.10;72.50;;;;;;5034970;28;20362;-70
2023/07/12 05:26:06;;;;;;;9.50;3.75;;;20.10;72.40;;;;;;5051567;28;20044;-70
2023/07/12 05:28:32;;;;;;;6.82;2.47;;;20.10;72.20;;;;;;5051710;28;20400;-70
2023/07/12 05:30:58;;;;;;;9.38;4.22;;;20.10;71.90;;;;;;5048817;28;20048;-70
2023/07/12 05:33:24;;;;;;;10.57;3.53;;;20.10;71.80;;;;;;5032574;28;20037;-70
2023/07/12 05:35:49;;;;;;;13.07;4.57;;;20.10;72.10;;;;;;5051189;28;20044;-70
2023/07/12 05:38:16;;;;;;;9.45;4.10;;;20.20;72.40;;;;;;5051416;28;20047;-70
2023/07/12 05:40:42;;;;;;;11.00;3.63;;;20.20;72.60;;;;;;5050371;28;20128;-70
2023/07/12 05:43:08;;;;;;;12.57;4.70;;;20.20;72.60;;;;;;5051592;28;20563;-70
2023/07/12 05:45:34;;;;;;;11.32;4.03;;;20.20;72.70;;;;;;5051275;28;20054;-70
2023/07/12 05:48:00;;;;;;;9.85;3.97;;;20.20;72.80;;;;;;5034650;28;20033;-70
2023/07/12 05:50:26;;;;;;;13.45;4.78;;;20.20;72.60;;;;;;5050969;28;20048;-70
2023/07/12 05:52:52;;;;;;;8.00;3.75;;;20.30;72.70;;;;;;5043516;28;20113;-70
2023/07/12 05:55:18;;;;;;;9.32;3.28;;;20.30;73.20;;;;;;5049895;28;20167;-70
2023/07/12 05:57:45;;;;;;;10.10;3.58;;;20.40;73.50;;;;;;5051262;28;20036;-70
2023/07/12 06:00:11;;;;;;;11.50;3.95;;;20.50;72.90;;;;;;5034561;28;20040;-70
2023/07/12 06:02:40;;;;;;;9.55;4.40;;;20.50;72.40;;;;;;5051340;28;20059;-70
2023/07/12 06:05:07;;;;;;;8.20;3.45;;;20.60;72.10;;;;;;5051413;28;20040;-70
2023/07/12 06:07:33;;;;;;;11.43;4.10;;;20.60;71.60;;;;;;5050624;28;20041;-70
2023/07/12 06:09:59;;;;;;;9.40;4.25;;;20.70;71.00;;;;;;5051045;28;20045;-70
2023/07/12 06:12:26;;;;;;;6.57;3.33;;;20.60;70.70;;;;;;5050652;28;20404;-70
2023/07/12 06:14:52;;;;;;;10.35;3.60;;;20.70;70.70;;;;;;5051330;28;20102;-70
2023/07/12 06:17:17;;;;;;;8.35;3.78;;;20.70;70.80;;;;;;5050630;28;20425;-70
2023/07/12 06:19:44;;;;;;;11.32;4.00;;;20.80;71.40;;;;;;5034288;28;20041;-70
2023/07/12 06:22:10;;;;;;;6.90;3.15;;;20.90;71.80;;;;;;5037000;28;20048;-70
2023/07/12 06:24:36;;;;;;;10.27;3.65;;;21.20;71.30;;;;;;5037625;28;20064;-70
2023/07/12 06:27:02;;;;;;;9.65;3.72;;;21.40;70.20;;;;;;5054442;28;20079;-70
2023/07/12 06:29:29;;;;;;;9.65;4.00;;;21.60;68.90;;;;;;5053981;28;20562;-70
2023/07/12 06:31:55;;;;;;;9.20;3.05;;;21.80;68.10;;;;;;5053650;28;20074;-70
2023/07/12 06:34:21;;;;;;;8.18;3.03;;;21.90;67.60;;;;;;5053763;28;20074;-70
2023/07/12 06:36:47;;;;;;;7.93;3.25;;;22.00;66.60;;;;;;5037435;28;20387;-70
2023/07/12 06:39:13;;;;;;;6.90;3.28;;;22.10;66.10;;;;;;5054030;28;20037;-71
2023/07/12 06:41:39;;;;;;;9.27;3.25;;;22.20;66.00;;;;;;5053914;28;20033;-71
2023/07/12 06:44:04;;;;;;;8.65;4.18;;;22.40;65.50;;;;;;5053915;28;20040;-71
2023/07/12 06:46:30;;;;;;;10.05;3.45;;;22.50;65.30;;;;;;5053844;28;20222;-70
2023/07/12 06:48:56;;;;;;;7.63;3.53;;;22.60;64.90;;;;;;5053852;28;20442;-70
2023/07/12 06:51:22;;;;;;;9.25;3.33;;;22.80;64.90;;;;;;5037289;28;20503;-70
2023/07/12 06:53:48;;;;;;;10.38;3.28;;;23.00;63.90;;;;;;5054052;28;20098;-70
2023/07/12 06:56:14;;;;;;;10.73;3.17;;;23.20;63.30;;;;;;5053875;28;20037;-70
2023/07/12 06:58:40;;;;;;;7.72;3.05;;;23.30;63.00;;;;;;5053961;28;20582;-70
2023/07/12 07:01:10;;;;;;;10.95;3.30;;;23.50;62.10;;;;;;5053873;28;20041;-70
2023/07/12 07:03:36;;;;;;;7.78;2.50;;;23.70;61.70;;;;;;5049427;28;20032;-70
2023/07/12 07:06:03;;;;;;;8.45;2.38;;;23.80;61.20;;;;;;5024441;28;20088;-70
2023/07/12 07:08:29;;;;;;;11.98;3.15;;;23.80;60.70;;;;;;5036723;28;20069;-70
2023/07/12 07:10:56;;;;;;;9.82;3.28;;;23.90;59.80;;;;;;5031163;28;20029;-71
2023/07/12 07:13:23;;;;;;;7.40;2.83;;;23.90;59.40;;;;;;5020514;28;20051;-70
2023/07/12 07:15:50;;;;;;;7.72;2.75;;;23.90;59.50;;;;;;5034475;28;20041;-70
2023/07/12 07:18:16;;;;;;;8.00;2.90;;;23.80;59.10;;;;;;5029575;28;20499;-70
2023/07/12 07:20:43;;;;;;;7.63;2.63;;;23.80;58.80;;;;;;5039184;28;20447;-70
2023/07/12 07:23:10;;;;;;;8.45;2.63;;;23.70;58.80;;;;;;5017886;28;20045;-70
2023/07/12 07:25:36;;;;;;;6.45;2.58;;;23.70;58.70;;;;;;5065881;28;20131;-70
2023/07/12 07:28:02;;;;;;;7.30;2.70;;;23.60;58.50;;;;;;5037629;28;20037;-70
2023/07/12 07:30:29;;;;;;;9.93;3.25;;;23.50;58.80;;;;;;5038339;28;20071;-70
2023/07/12 07:32:55;;;;;;;7.18;2.97;;;23.40;59.60;;;;;;5035280;28;20045;-70
2023/07/12 07:35:21;;;;;;;10.15;3.45;;;23.50;59.90;;;;;;5035155;28;20071;-71
2023/07/12 07:37:48;;;;;;;7.65;3.15;;;23.50;59.60;;;;;;5017627;28;20463;-70
2023/07/12 07:40:14;;;;;;;7.80;3.13;;;23.60;59.00;;;;;;5035771;28;20450;-70
2023/07/12 07:42:40;;;;;;;8.07;3.00;;;23.60;59.30;;;;;;5035930;28;20041;-70
2023/07/12 07:45:06;;;;;;;8.75;3.45;;;23.60;59.80;;;;;;5034166;28;20037;-70
2023/07/12 07:47:32;;;;;;;7.90;2.95;;;23.70;60.00;;;;;;5043030;28;21372;-70
2023/07/12 07:49:57;;;;;;;11.80;3.95;;;23.80;59.10;;;;;;5050000;28;20072;-70
2023/07/12 07:52:23;;;;;;;8.50;3.30;;;23.80;58.70;;;;;;5023741;28;20037;-70
2023/07/12 07:54:49;;;;;;;12.77;3.40;;;23.80;58.60;;;;;;5057818;28;20489;-70
2023/07/12 07:57:14;;;;;;;10.02;3.35;;;23.90;58.50;;;;;;5056545;28;20071;-70
2023/07/12 07:59:40;;;;;;;8.68;3.17;;;23.90;58.10;;;;;;5057001;28;20097;-70
2023/07/12 08:02:10;;;;;;;8.57;2.85;;;23.80;58.10;;;;;;5056459;28;20484;-70
2023/07/12 08:04:36;;;;;;;9.82;3.80;;;23.80;58.20;;;;;;5057048;28;20090;-70
2023/07/12 08:07:03;;;;;;;7.43;2.75;;;23.90;58.50;;;;;;5040306;28;20040;-70
2023/07/12 08:09:29;;;;;;;10.50;2.92;;;23.90;58.10;;;;;;5056434;28;20043;-70
2023/07/12 08:11:55;;;;;;;10.95;3.35;;;23.80;58.00;;;;;;5039885;28;20041;-70
2023/07/12 08:14:20;;;;;;;8.80;3.30;;;23.80;57.80;;;;;;5053697;28;20045;-70
2023/07/12 08:16:48;;;;;;;10.20;3.50;;;23.80;58.00;;;;;;5056832;28;20032;-70
2023/07/12 08:19:14;;;;;;;10.52;3.67;;;23.80;58.50;;;;;;5056502;28;20040;-70
2023/07/12 08:21:39;;;;;;;7.80;3.05;;;23.80;58.60;;;;;;5039999;28;20036;-70
2023/07/12 08:24:05;;;;;;;8.40;3.22;;;23.70;58.60;;;;;;5056035;28;20131;-69
2023/07/12 08:26:31;;;;;;;8.50;2.60;;;23.70;58.90;;;;;;5056320;28;20110;-68
2023/07/12 08:28:57;;;;;;;9.60;3.72;;;23.60;59.00;;;;;;5052806;28;20127;-68
2023/07/12 08:31:22;;;;;;;7.85;3.50;;;23.60;59.30;;;;;;5055647;28;20036;-69
2023/07/12 08:33:49;;;;;;;7.45;4.00;;;23.50;59.60;;;;;;5056026;28;20086;-69
2023/07/12 08:36:16;;;;;;;8.50;3.20;;;23.40;60.20;;;;;;5055905;28;20106;-69
2023/07/12 08:38:42;;;;;;;9.15;3.63;;;23.30;60.90;;;;;;5055999;28;20510;-69
2023/07/12 08:41:17;;;;;;;7.68;2.72;;;23.20;61.00;;;;;;5056161;28;20495;-68
2023/07/12 08:43:43;;;;;;;6.53;2.80;;;23.20;61.30;;;;;;5056067;28;20491;-69
2023/07/12 08:46:30;;;;;;;9.43;3.90;;;23.10;61.80;;;;;;5056212;28;20041;-69
2023/07/12 08:49:00;;;;;;;7.88;3.30;;;23.00;62.00;;;;;;5055700;28;20048;-69
2023/07/12 08:51:35;;;;;;;10.00;4.43;;;22.90;62.60;;;;;;5056329;28;20044;-69
2023/07/12 08:54:01;;;;;;;8.65;3.92;;;22.80;63.30;;;;;;5039217;28;20040;-70
2023/07/12 08:56:27;;;;;;;7.38;3.90;;;22.70;64.00;;;;;;5056021;28;20511;-69
2023/07/12 08:58:54;;;;;;;7.53;3.78;;;22.70;64.80;;;;;;5073366;28;20047;-69
2023/07/12 09:01:43;;;;;;;10.32;4.10;;;22.70;65.10;;;;;;5055646;28;20123;-69
2023/07/12 09:04:28;;;;;;;10.23;4.22;;;22.80;66.40;;;;;;5055495;28;20040;-70
2023/07/12 09:07:00;;;;;;;8.27;3.08;;;22.90;66.50;;;;;;5055409;28;20033;-70
2023/07/12 09:09:27;;;;;;;9.35;3.55;;;23.00;66.60;;;;;;5055530;28;20047;-70
2023/07/12 09:11:54;;;;;;;11.25;3.63;;;23.20;66.00;;;;;;5055450;28;20028;-68
2023/07/12 09:14:23;;;;;;;7.43;3.08;;;23.30;66.20;;;;;;5055198;28;20048;-68
2023/07/12 09:16:56;;;;;;;13.18;3.78;;;23.60;64.90;;;;;;5038800;28;20040;-68
2023/07/12 09:19:25;;;;;;;7.25;3.20;;;23.80;63.50;;;;;;5055276;28;20151;-68
2023/07/12 09:22:00;;;;;;;8.77;2.65;;;23.90;62.60;;;;;;5055540;28;20037;-68
2023/07/12 09:24:31;;;;;;;10.63;2.40;;;24.00;61.50;;;;;;5038244;28;20057;-68
2023/07/12 09:27:04;;;;;;;7.32;2.88;;;24.10;60.50;;;;;;5055139;28;20133;-68
2023/07/12 09:29:33;;;;;;;9.43;3.10;;;24.10;60.70;;;;;;5072994;28;20392;-68
2023/07/12 09:32:07;;;;;;;7.57;2.25;;;24.10;61.10;;;;;;5055191;28;20040;-69
2023/07/12 09:34:39;;;;;;;8.63;2.80;;;24.20;62.10;;;;;;5054934;28;20173;-69
2023/07/12 09:37:16;;;;;;;7.13;2.53;;;24.30;62.20;;;;;;5055293;28;20046;-69
2023/07/12 09:39:59;;;;;;;8.48;2.42;;;24.40;61.90;;;;;;5055232;28;20040;-69
2023/07/12 09:42:28;;;;;;;7.50;2.10;;;24.50;61.40;;;;;;5051271;28;20044;-69
2023/07/12 09:44:55;;;;;;;5.68;1.70;;;24.60;62.10;;;;;;5054335;28;20041;-69
2023/07/12 09:48:00;;;;;;;6.03;2.47;;;24.80;60.80;;;;;;5054986;28;20178;-69
2023/07/12 09:50:43;;;;;;;6.63;2.67;;;25.10;60.50;;;;;;5055137;28;20055;-69
2023/07/12 09:53:45;;;;;;;4.18;1.50;;;25.20;58.70;;;;;;5048249;28;20424;-69
2023/07/12 09:56:23;;;;;;;4.68;1.73;;;25.30;58.40;;;;;;5042222;28;20123;-72
2023/07/12 09:59:03;;;;;;;7.25;2.20;;;25.30;58.10;;;;;;5054419;28;20124;-72
2023/07/12 10:01:29;;;;;;;6.97;2.75;;;25.40;58.30;;;;;;5054772;28;20162;-72
2023/07/12 10:03:58;;;;;;;6.85;1.88;;;25.40;58.00;;;;;;5054288;28;20480;-72
2023/07/12 10:06:44;;;;;;;6.07;2.00;;;25.50;57.40;;;;;;5054620;28;20365;-72
2023/07/12 10:09:26;;;;;;;4.38;2.10;;;25.60;56.80;;;;;;5053550;28;20040;-72
2023/07/12 10:12:18;;;;;;;5.72;1.67;;;25.70;56.60;;;;;;5054365;28;20098;-72
2023/07/12 10:14:46;;;;;;;5.05;1.90;;;25.80;56.30;;;;;;5051016;28;20111;-73
2023/07/12 10:17:24;;;;;;;4.45;1.88;;;25.80;55.10;;;;;;5054222;28;20036;-73
2023/07/12 10:19:53;;;;;;;3.88;1.85;;;25.90;54.80;;;;;;5037681;28;20040;-72
2023/07/12 10:22:33;;;;;;;6.97;2.00;;;25.80;54.80;;;;;;5054513;28;20040;-72
2023/07/12 10:25:03;;;;;;;6.05;1.65;;;25.80;55.10;;;;;;5037591;28;20036;-72
2023/07/12 10:27:33;;;;;;;5.15;2.00;;;25.80;53.90;;;;;;5054034;28;20040;-72
2023/07/12 10:30:04;;;;;;;4.07;1.88;;;25.80;53.70;;;;;;5054117;28;20044;-72
2023/07/12 10:32:36;;;;;;;5.80;2.63;;;25.80;53.40;;;;;;5037642;28;20044;-72
2023/07/12 10:35:17;;;;;;;5.90;2.00;;;25.70;53.80;;;;;;5054454;28;20062;-73
2023/07/12 10:37:48;;;;;;;4.10;1.67;;;25.70;54.10;;;;;;5054089;28;20500;-72
2023/07/12 10:40:21;;;;;;;5.63;1.95;;;25.80;54.30;;;;;;5054225;28;20044;-72
2023/07/12 10:42:59;;;;;;;6.90;2.28;;;25.80;54.20;;;;;;5054392;28;20082;-73
2023/07/12 10:45:29;;;;;;;7.25;3.00;;;25.80;54.10;;;;;;5053767;28;20581;-72
2023/07/12 10:47:57;;;;;;;5.05;2.30;;;25.80;54.10;;;;;;5054072;28;20040;-72
2023/07/12 10:50:43;;;;;;;9.77;2.55;;;25.80;54.00;;;;;;5054102;28;20040;-72
2023/07/12 10:53:23;;;;;;;6.60;2.38;;;25.80;53.60;;;;;;5054362;28;20396;-72
2023/07/12 10:56:10;;;;;;;5.22;1.83;;;25.70;53.00;;;;;;5057475;28;20101;-72
2023/07/12 10:58:54;;;;;;;5.10;1.73;;;25.60;52.60;;;;;;5040878;28;20068;-73
2023/07/12 11:01:50;;;;;;;5.30;1.88;;;25.40;51.60;;;;;;5049987;28;20111;-72
2023/07/12 11:04:38;;;;;;;3.90;1.58;;;25.30;52.30;;;;;;5041396;28;20123;-72
2023/07/12 11:07:04;;;;;;;5.88;1.73;;;25.20;53.20;;;;;;5040563;28;20041;-71
2023/07/12 11:09:54;;;;;;;6.30;2.17;;;25.20;53.30;;;;;;5057925;28;20064;-71
2023/07/12 11:12:29;;;;;;;4.03;1.55;;;25.20;53.30;;;;;;5046138;28;20053;-72
2023/07/12 11:15:04;;;;;;;3.25;1.52;;;25.30;53.00;;;;;;5057727;28;20094;-73
2023/07/12 11:18:05;;;;;;;3.95;1.40;;;25.40;52.80;;;;;;5057183;28;20044;-72
2023/07/12 11:20:35;;;;;;;4.63;1.50;;;25.40;53.30;;;;;;5057620;28;20498;-72
2023/07/12 11:23:07;;;;;;;2.97;1.48;;;25.50;53.10;;;;;;5057242;28;20048;-72
2023/07/12 11:25:48;;;;;;;4.93;1.65;;;25.60;53.10;;;;;;5057537;28;20047;-72
2023/07/12 11:28:20;;;;;;;4.63;1.45;;;25.60;52.10;;;;;;5057243;28;20048;-72
2023/07/12 11:30:47;;;;;;;3.85;1.63;;;25.60;52.10;;;;;;5057488;28;20450;-72
2023/07/12 11:33:28;;;;;;;3.65;1.33;;;25.60;52.00;;;;;;5057281;28;20430;-72
2023/07/12 11:36:16;;;;;;;6.03;1.67;;;25.70;51.50;;;;;;5057150;28;20442;-72
2023/07/12 11:38:43;;;;;;;4.43;1.50;;;25.70;51.50;;;;;;5057132;28;20123;-72
2023/07/12 11:41:24;;;;;;;4.32;1.45;;;25.70;51.40;;;;;;5057421;28;20048;-71
2023/07/12 11:44:13;;;;;;;5.00;1.60;;;25.70;51.70;;;;;;5057018;28;20106;-73
2023/07/12 11:46:40;;;;;;;2.78;1.20;;;25.80;51.80;;;;;;5057362;28;20392;-73
2023/07/12 11:49:18;;;;;;;5.63;1.63;;;25.80;51.30;;;;;;5056157;28;20127;-72
2023/07/12 11:51:47;;;;;;;2.40;1.17;;;26.00;51.30;;;;;;5056830;28;20665;-72
2023/07/12 11:54:20;;;;;;;2.55;1.27;;;26.10;50.10;;;;;;5052058;28;20132;-72
2023/07/12 11:56:48;;;;;;;4.10;1.58;;;26.10;49.60;;;;;;5046100;28;20106;-73
2023/07/12 11:59:15;;;;;;;2.97;1.30;;;26.20;49.00;;;;;;5039088;28;20102;-73
2023/07/12 12:01:43;;;;;;;2.20;0.88;;;26.20;47.50;;;;;;5056372;28;20033;-73
2023/07/12 12:04:21;;;;;;;2.92;1.08;;;26.20;47.70;;;;;;5053252;28;20069;-73
2023/07/12 12:06:49;;;;;;;3.55;1.00;;;26.20;47.10;;;;;;5055669;28;20037;-73
2023/07/12 12:09:15;;;;;;;3.72;1.05;;;26.20;47.70;;;;;;5056665;28;20052;-73
2023/07/12 12:11:41;;;;;;;3.05;1.20;;;26.20;48.70;;;;;;5051150;28;20063;-73
2023/07/12 12:14:21;;;;;;;2.92;1.27;;;26.20;48.30;;;;;;5036840;28;20069;-73
2023/07/12 12:16:54;;;;;;;2.47;1.10;;;26.30;47.90;;;;;;5051131;28;20029;-73
2023/07/12 12:19:22;;;;;;;4.35;1.23;;;26.20;47.00;;;;;;5056393;28;20063;-73
2023/07/12 12:21:50;;;;;;;4.10;0.98;;;26.20;47.30;;;;;;5056169;28;20040;-73
2023/07/12 12:24:21;;;;;;;3.15;1.15;;;26.20;47.30;;;;;;5052941;28;20493;-72
2023/07/12 12:26:50;;;;;;;4.50;1.42;;;26.20;47.20;;;;;;5053025;28;20033;-73
2023/07/12 12:29:19;;;;;;;3.85;1.38;;;26.10;47.80;;;;;;5053089;28;20049;-72
2023/07/12 12:32:02;;;;;;;3.30;1.25;;;26.10;47.60;;;;;;5036196;28;20573;-77
2023/07/12 12:34:40;;;;;;;3.80;1.35;;;26.10;47.20;;;;;;5036477;28;20059;-72
2023/07/12 12:37:06;;;;;;;2.72;1.08;;;26.10;47.40;;;;;;5052816;28;20045;-72
2023/07/12 12:39:33;;;;;;;2.38;1.10;;;26.10;47.70;;;;;;5052842;28;20056;-73
2023/07/12 12:42:15;;;;;;;4.28;0.90;;;26.10;46.70;;;;;;5052579;28;20040;-73
2023/07/12 12:44:40;;;;;;;3.40;0.88;;;26.20;46.60;;;;;;5036236;28;20043;-73
2023/07/12 12:47:15;;;;;;;3.03;0.90;;;26.20;46.30;;;;;;5036443;28;20032;-73
2023/07/12 12:49:42;;;;;;;4.18;1.17;;;26.20;45.90;;;;;;5052537;28;20052;-73
2023/07/12 12:52:37;;;;;;;6.50;1.17;;;26.20;46.50;;;;;;5052117;28;20107;-73
2023/07/12 12:55:08;;;;;;;2.83;1.30;;;26.30;46.50;;;;;;5052857;28;20167;-74
2023/07/12 12:57:35;;;;;;;4.03;1.10;;;26.30;46.80;;;;;;5052433;28;20044;-73